Time;durP1;ratioP1;P1;durP2;ratioP2;P2;SDS_P1;SDS_P2;PMS_P1;PMS_P2;Temp;Humidity;BMP_temperature;BMP_pressure;BME280_temperature;BME280_humidity;BME280_pressure;Samples;Min_cycle;Max_cycle;Signal;HPM_P1;HPM_P2
2023/05/06 05:26:14;;;;;;;61.47;30.40;;;;;;;9.61;89.11;101490.09;4823550;29;20110;-83
2023/05/06 05:58:34;;;;;;;58.22;29.77;;;;;;;10.48;85.67;101512.50;4834678;29;20137;-81
2023/05/06 06:01:12;;;;;;;42.15;22.42;;;;;;;10.65;85.07;101514.03;4824195;29;20471;-83
2023/05/06 06:03:37;;;;;;;96.57;24.27;;;;;;;10.76;84.67;101510.91;4844921;29;20033;-82
2023/05/06 06:06:15;;;;;;;46.47;25.35;;;;;;;10.85;84.51;101513.53;4835763;29;20117;-82
2023/05/06 06:09:11;;;;;;;42.95;22.63;;;;;;;10.92;84.42;101514.47;4835244;29;20037;-81
2023/05/06 06:11:36;;;;;;;44.67;23.85;;;;;;;11.06;83.97;101518.19;4834057;29;20546;-81
2023/05/06 06:44:32;;;;;;;25.77;16.00;;;;;;;13.65;75.93;101532.06;5424758;24;20050;-83
2023/05/06 06:59:23;;;;;;;25.77;17.65;;;;;;;15.67;67.38;101540.38;5294103;24;20141;-82
2023/05/06 07:12:08;;;;;;;19.20;14.27;;;;;;;18.92;57.65;101547.63;4788401;29;20481;-81
2023/05/06 07:18:35;;;;;;;18.92;14.32;;;;;;;21.10;50.33;101551.91;4783826;29;20054;-80
2023/05/06 07:21:36;;;;;;;;;;;;;;;;;;;;;
2023/05/06 07:24:25;;;;;;;17.70;14.15;;;;;;;20.59;51.42;101547.25;4750900;29;20053;-81
2023/05/06 07:27:29;;;;;;;;;;;;;;;;;;;;;
2023/05/06 07:40:19;;;;;;;19.13;15.30;;;;;;;21.84;48.47;101549.91;4820957;29;20083;-82
2023/05/06 07:43:34;;;;;;;18.75;15.00;;;;;;;21.94;49.35;101556.34;4821121;29;20065;-81
2023/05/06 07:46:18;;;;;;;16.23;13.88;;;;;;;21.83;49.04;101549.09;4836063;29;20054;-82
2023/05/06 07:49:12;;;;;;;18.33;13.88;;;;;;;22.46;47.10;101547.84;4828489;29;20461;-82
2023/05/06 07:51:54;;;;;;;;;;;;;;;;;;;;;
2023/05/06 07:54:20;;;;;;;16.30;13.40;;;;;;;24.17;42.61;101555.19;4817711;29;20050;-82
2023/05/06 07:57:16;;;;;;;18.90;14.27;;;;;;;22.13;48.44;101553.25;4836350;29;20097;-82
2023/05/06 07:59:43;;;;;;;15.60;13.18;;;;;;;22.74;47.40;101557.69;4824940;29;20470;-82
2023/05/06 08:02:37;;;;;;;15.85;13.27;;;;;;;23.52;46.21;101553.56;4822532;29;20083;-82
2023/05/06 08:05:20;;;;;;;15.52;12.23;;;;;;;24.60;42.00;101557.69;4834044;29;20037;-81
2023/05/06 08:08:14;;;;;;;16.80;12.98;;;;;;;24.13;43.82;101560.38;4820668;29;20030;-81
2023/05/06 08:11:46;;;;;;;;;;;;;;;;;;;;;
2023/05/06 08:14:26;;;;;;;13.18;11.23;;;;;;;25.44;40.61;101557.34;4837591;24;20062;-83
2023/05/06 08:26:38;;;;;;;13.25;10.60;;;;;;;24.74;41.88;101549.72;5352737;24;20125;-83
2023/05/06 08:29:13;;;;;;;16.42;12.27;;;;;;;24.56;42.00;101554.66;4803659;29;20030;-82
2023/05/06 08:31:40;;;;;;;17.17;12.75;;;;;;;23.50;44.90;101552.16;4819389;29;20112;-81
2023/05/06 08:34:21;;;;;;;18.35;13.82;;;;;;;23.83;46.24;101555.59;4804865;29;20506;-82
2023/05/06 08:36:47;;;;;;;15.13;11.15;;;;;;;24.78;42.89;101564.59;4822678;29;20423;-82
2023/05/06 08:42:34;;;;;;;15.48;12.43;;;;;;;24.81;41.28;101559.34;4819536;29;20065;-82
2023/05/06 09:32:29;;;;;;;8.45;7.22;;;;;;;22.83;44.67;101534.16;4934325;24;20066;-82
2023/05/06 09:48:33;;;;;;;9.70;6.93;;;;;;;24.62;39.10;101534.28;4848248;29;20136;-81
2023/05/06 10:09:44;;;;;;;;;;;;;;;26.60;34.88;101519.41;5520233;24;20319;-82
2023/05/06 10:12:35;;;;;;;6.97;5.82;;;;;;;26.69;35.95;101511.34;4814692;29;19932;-80
2023/05/06 10:18:22;;;;;;;8.25;5.60;;;;;;;27.99;33.04;101502.34;4821455;29;20054;-81
2023/05/06 10:26:39;;;;;;;;;;;;;;;27.42;32.45;101502.28;4657830;27;20111;-81
2023/05/06 10:29:08;;;;;;;6.45;4.40;;;;;;;27.87;31.45;101504.75;4816298;29;19925;-80
2023/05/06 10:34:02;;;;;;;8.02;5.53;;;;;;;27.35;33.63;101500.72;4815667;29;20050;-80
2023/05/06 10:36:30;;;;;;;6.65;5.78;;;;;;;27.57;32.17;101493.81;4794295;29;20030;-81
2023/05/06 10:38:58;;;;;;;6.00;4.93;;;;;;;27.56;32.70;101497.69;4818988;29;20050;-81
2023/05/06 10:41:26;;;;;;;8.95;5.85;;;;;;;27.96;32.37;101498.25;4817867;29;20025;-81
2023/05/06 10:43:55;;;;;;;6.80;5.57;;;;;;;27.97;33.19;101488.81;4806320;29;20046;-81
2023/05/06 10:46:30;;;;;;;5.20;3.92;;;;;;;28.18;29.87;101493.25;4811714;29;20030;-83
2023/05/06 10:49:05;;;;;;;4.95;4.40;;;;;;;28.37;30.68;101488.50;4816022;29;20030;-81
2023/05/06 10:57:39;;;;;;;7.13;5.88;;;;;;;27.19;32.11;101490.94;4845854;24;20550;-81
2023/05/06 11:00:07;;;;;;;6.75;5.25;;;;;;;26.17;34.32;101483.34;4838650;29;20045;-81
2023/05/06 11:02:33;;;;;;;7.60;5.80;;;;;;;26.50;34.82;101486.38;4810289;29;20047;-82
2023/05/06 11:08:25;;;;;;;5.80;5.20;;;;;;;26.88;32.97;101480.25;5066612;24;20586;-84
2023/05/06 11:10:51;;;;;;;6.78;6.05;;;;;;;26.86;33.33;101479.72;4840147;29;20034;-81
2023/05/06 11:13:20;;;;;;;9.07;5.55;;;;;;;27.05;33.13;101479.78;4841945;29;20034;-83
2023/05/06 11:15:46;;;;;;;4.80;4.30;;;;;;;28.17;31.57;101480.53;4840358;29;20042;-83
2023/05/06 11:18:26;;;;;;;6.25;4.65;;;;;;;29.64;28.09;101476.41;4843199;29;20040;-82
2023/05/06 11:21:01;;;;;;;5.57;4.63;;;;;;;29.48;29.18;101471.16;4851387;29;20041;-84
2023/05/06 11:23:48;;;;;;;5.88;4.72;;;;;;;28.41;30.35;101472.91;4842895;29;20046;-84
2023/05/06 11:28:42;;;;;;;4.55;3.92;;;;;;;27.84;31.53;101467.47;4835925;29;20515;-81
2023/05/06 11:31:08;;;;;;;4.18;3.30;;;;;;;28.67;30.98;101472.47;4847251;29;20030;-81
2023/05/06 11:33:34;;;;;;;5.10;3.78;;;;;;;28.96;29.57;101467.78;4816494;29;20514;-81
2023/05/06 11:36:06;;;;;;;4.45;3.92;;;;;;;29.29;28.96;101473.25;4844873;29;20041;-80
2023/05/06 11:38:45;;;;;;;4.18;3.78;;;;;;;29.03;29.11;101469.00;4838243;29;20062;-84
2023/05/06 11:45:10;;;;;;;4.95;3.80;;;;;;;27.71;30.84;101457.16;4844381;29;20109;-80
2023/05/06 11:47:35;;;;;;;5.32;3.80;;;;;;;27.56;31.29;101467.28;4802566;29;20038;-80
2023/05/06 11:50:06;;;;;;;4.63;4.00;;;;;;;26.86;31.67;101468.66;4824893;29;20386;-81
2023/05/06 11:52:31;;;;;;;4.78;3.90;;;;;;;26.55;32.56;101467.03;4845143;29;20421;-80
2023/05/06 11:54:56;;;;;;;5.35;3.30;;;;;;;27.02;31.49;101461.84;4847810;29;20029;-81
2023/05/06 11:57:22;;;;;;;9.88;3.65;;;;;;;27.75;30.50;101461.78;4842164;29;20031;-80
2023/05/06 11:59:54;;;;;;;4.75;3.50;;;;;;;28.18;30.29;101460.84;4823801;29;20030;-81
2023/05/06 12:02:21;;;;;;;4.20;3.30;;;;;;;28.27;30.38;101475.66;4840588;29;20076;-82
2023/05/06 12:04:49;;;;;;;5.30;3.63;;;;;;;28.28;29.52;101465.41;4840513;29;20049;-80
2023/05/06 12:07:15;;;;;;;5.15;4.13;;;;;;;28.87;29.11;101468.53;4843240;29;20471;-82
2023/05/06 12:09:49;;;;;;;5.45;4.75;;;;;;;28.02;30.15;101462.22;4844587;29;20037;-84
2023/05/06 12:12:16;;;;;;;4.22;3.40;;;;;;;29.40;26.55;101463.59;4827796;29;20030;-83
2023/05/06 12:14:41;;;;;;;4.78;3.50;;;;;;;27.77;29.54;101461.47;4845268;29;20042;-79
2023/05/06 12:17:07;;;;;;;5.00;3.30;;;;;;;27.56;30.99;101456.22;4827195;29;20440;-80
2023/05/06 12:19:34;;;;;;;4.78;3.20;;;;;;;28.74;29.25;101467.38;4841772;29;20042;-81
2023/05/06 12:22:23;;;;;;;3.28;2.20;;;;;;;29.55;27.10;101458.84;4839886;29;20064;-81
2023/05/06 12:24:52;;;;;;;4.90;3.20;;;;;;;28.02;28.53;101451.13;4842353;29;20496;-80
2023/05/06 12:27:36;;;;;;;5.38;2.40;;;;;;;27.67;29.33;101456.91;4842693;29;20526;-84
2023/05/06 12:30:03;;;;;;;2.80;2.40;;;;;;;28.51;27.02;101446.16;4841243;29;20045;-80
2023/05/06 12:32:29;;;;;;;12.40;3.35;;;;;;;27.50;28.84;101449.13;4844755;29;20030;-82
2023/05/06 12:53:12;;;;;;;7.93;7.13;;;;;;;25.66;33.89;101443.09;5430147;24;20057;-82
2023/05/06 13:28:24;;;;;;;6.25;4.63;;;;;;;24.30;34.83;101413.47;5187156;24;20050;-83
2023/05/06 13:31:24;;;;;;;;;;;;;;;;;;;;;
2023/05/06 13:38:11;;;;;;;5.28;3.80;;;;;;;24.52;33.73;101411.25;4833212;29;20136;-82
2023/05/06 13:49:45;;;;;;;5.18;3.78;;;;;;;24.43;34.62;101398.34;5036569;24;20066;-84
2023/05/06 14:02:59;;;;;;;3.90;2.15;;;;;;;25.83;30.23;101404.94;5395732;24;20213;-84
2023/05/06 14:05:25;;;;;;;2.50;1.95;;;;;;;25.34;31.31;101405.78;4835409;29;20136;-83
2023/05/06 14:29:13;;;;;;;2.03;1.27;;;;;;;25.16;30.41;101383.28;4835074;29;20289;-81
2023/05/06 14:56:11;;;;;;;3.42;1.55;;;;;;;24.75;32.09;101372.41;5013925;24;20125;-82
2023/05/06 14:58:38;;;;;;;2.80;1.65;;;;;;;24.93;31.60;101360.78;4837153;29;20120;-83
2023/05/06 15:01:03;;;;;;;2.97;1.60;;;;;;;24.36;31.97;101360.09;4850203;29;20045;-83
2023/05/06 15:03:32;;;;;;;2.33;1.65;;;;;;;24.77;31.98;101348.19;4837394;29;20034;-84
2023/05/06 15:06:06;;;;;;;2.70;1.73;;;;;;;24.52;32.37;101355.41;4836868;29;20064;-84
2023/05/06 15:08:35;;;;;;;2.92;1.63;;;;;;;24.42;32.92;101352.66;4969512;24;21056;-83
2023/05/06 15:11:02;;;;;;;4.72;1.95;;;;;;;24.34;33.61;101357.63;4837680;29;20145;-84
2023/05/06 15:13:31;;;;;;;2.85;1.67;;;;;;;24.34;32.59;101357.63;4832818;29;20557;-84
2023/05/06 15:15:56;;;;;;;3.42;1.60;;;;;;;24.04;33.48;101359.31;5128239;24;20475;-84
2023/05/06 15:18:22;;;;;;;3.60;1.75;;;;;;;24.21;33.50;101358.19;4839668;29;20030;-83
2023/05/06 15:20:53;;;;;;;2.95;1.63;;;;;;;24.21;33.37;101363.69;4846745;29;20061;-82
2023/05/06 15:23:19;;;;;;;2.67;1.70;;;;;;;24.31;32.77;101358.19;4856183;29;20387;-82
2023/05/06 15:25:44;;;;;;;3.88;1.77;;;;;;;23.95;32.98;101354.59;4839234;29;20041;-83
2023/05/06 15:28:10;;;;;;;3.75;1.80;;;;;;;24.03;33.01;101356.84;4838932;29;20408;-82
2023/05/06 15:30:36;;;;;;;3.38;1.63;;;;;;;23.69;33.03;101358.16;4837758;29;20048;-82
2023/05/06 15:33:02;;;;;;;4.82;1.67;;;;;;;23.75;33.94;101362.59;4840770;29;20064;-82
2023/05/06 15:35:27;;;;;;;3.25;1.45;;;;;;;23.77;33.31;101354.06;4840654;29;20025;-83
2023/05/06 15:37:57;;;;;;;3.92;1.60;;;;;;;23.75;33.46;101362.59;4840863;29;20030;-84
2023/05/06 15:40:25;;;;;;;2.17;1.60;;;;;;;23.67;33.68;101352.13;4841523;29;20034;-83
2023/05/06 15:42:51;;;;;;;3.25;1.70;;;;;;;23.59;34.14;101348.00;4837269;29;20041;-83
2023/05/06 15:45:17;;;;;;;5.53;1.80;;;;;;;23.56;33.71;101356.78;4836868;29;20501;-84
2023/05/06 15:47:43;;;;;;;4.28;1.77;;;;;;;23.68;33.59;101355.72;4820788;29;20035;-84
2023/05/06 16:08:18;;;;;;;3.33;1.70;;;;;;;23.29;34.67;101346.84;5647592;24;20061;-85
2023/05/06 18:22:55;;;;;;;2.42;1.70;;;;;;;17.81;57.89;101406.38;5559027;24;20050;-80
2023/05/06 18:25:20;;;;;;;4.28;2.40;;;;;;;17.82;58.10;101414.28;4823135;29;20038;-80
2023/05/06 18:27:48;;;;;;;3.28;1.83;;;;;;;17.80;57.52;101404.72;4821935;29;20079;-80
2023/05/06 18:30:15;;;;;;;2.35;1.63;;;;;;;17.77;57.62;101422.31;4822123;29;20062;-80
2023/05/06 18:32:40;;;;;;;3.17;1.98;;;;;;;17.79;57.44;101409.31;4819880;29;20419;-79
2023/05/06 18:35:06;;;;;;;3.15;1.70;;;;;;;17.71;57.58;101406.91;4822981;29;20030;-81
2023/05/06 18:37:32;;;;;;;3.13;1.88;;;;;;;17.57;57.89;101407.09;4810255;29;20053;-79
2023/05/06 18:39:58;;;;;;;2.75;2.10;;;;;;;17.54;58.55;101410.28;4822325;29;20045;-78
2023/05/06 18:42:23;;;;;;;2.63;1.88;;;;;;;17.56;58.24;101410.06;4814219;29;20034;-79
2023/05/06 18:44:49;;;;;;;2.70;1.90;;;;;;;17.67;58.38;101411.16;4806988;29;20034;-79
2023/05/06 18:47:18;;;;;;;4.45;2.30;;;;;;;17.71;58.39;101410.47;4822013;29;20027;-79
2023/05/06 18:49:43;;;;;;;4.00;2.30;;;;;;;17.72;58.51;101411.31;4814671;29;20087;-80
2023/05/06 18:52:13;;;;;;;2.85;2.40;;;;;;;17.66;58.97;101417.66;4822306;29;20034;-82
2023/05/06 18:54:42;;;;;;;5.25;2.38;;;;;;;17.61;59.30;101422.97;4820451;29;20067;-78
2023/05/06 18:57:07;;;;;;;4.28;2.40;;;;;;;17.61;59.33;101426.53;4817923;29;20026;-77
2023/05/06 18:59:33;;;;;;;3.83;2.50;;;;;;;17.53;59.95;101424.13;4820298;29;20038;-78
2023/05/06 19:02:02;;;;;;;4.18;2.63;;;;;;;17.47;60.14;101438.66;4821408;29;20031;-78
2023/05/06 19:04:27;;;;;;;4.38;2.63;;;;;;;17.46;60.27;101437.00;4806265;29;20050;-78
2023/05/06 19:06:52;;;;;;;3.30;2.70;;;;;;;17.26;61.19;101446.22;4820653;29;20287;-78
2023/05/06 19:09:19;;;;;;;4.78;2.50;;;;;;;17.34;60.89;101443.19;4821943;29;20564;-78
2023/05/06 19:11:45;;;;;;;3.33;2.67;;;;;;;17.34;61.00;101436.94;4815769;29;20038;-80
2023/05/06 19:14:11;;;;;;;3.35;2.67;;;;;;;17.14;61.82;101443.44;4808686;29;20031;-77
2023/05/06 19:16:39;;;;;;;4.28;3.00;;;;;;;17.06;62.16;101439.13;4812737;29;20483;-79
2023/05/06 19:19:07;;;;;;;4.47;3.15;;;;;;;16.92;62.93;101448.47;4817172;29;20073;-78
2023/05/06 19:21:37;;;;;;;6.45;3.35;;;;;;;16.96;63.09;101452.41;4820407;29;20054;-78
2023/05/06 19:24:03;;;;;;;6.93;4.68;;;;;;;16.88;63.23;101448.06;4820242;29;20061;-77
2023/05/06 19:26:29;;;;;;;9.25;6.80;;;;;;;16.91;62.30;101452.22;4819290;29;20061;-78
2023/05/06 19:28:54;;;;;;;12.27;7.28;;;;;;;16.83;62.45;101454.16;4820339;29;20026;-77
2023/05/06 19:31:20;;;;;;;8.60;6.30;;;;;;;16.94;61.97;101457.22;4820743;29;20631;-78
2023/05/06 19:33:45;;;;;;;8.75;6.28;;;;;;;16.95;62.33;101458.88;4821431;29;20087;-77
2023/05/06 19:36:10;;;;;;;9.02;6.18;;;;;;;16.86;62.53;101454.78;4818361;29;20099;-77
2023/05/06 19:38:36;;;;;;;7.07;5.30;;;;;;;16.70;63.08;101457.03;4823374;29;20026;-76
2023/05/06 19:41:02;;;;;;;8.45;5.50;;;;;;;16.57;64.19;101457.16;4817662;29;20037;-77
2023/05/06 19:43:27;;;;;;;10.05;6.50;;;;;;;16.68;63.33;101459.13;4822343;29;20035;-77
2023/05/06 19:45:52;;;;;;;9.23;6.00;;;;;;;16.86;62.60;101452.06;4822394;29;20079;-77
2023/05/06 19:48:18;;;;;;;12.82;7.15;;;;;;;16.75;63.03;101454.47;4805591;29;20042;-78
2023/05/06 19:50:46;;;;;;;10.77;6.10;;;;;;;16.78;62.97;101458.63;4818631;29;20070;-77
2023/05/06 19:53:11;;;;;;;9.50;6.40;;;;;;;16.80;63.14;101456.50;4813130;29;20041;-77
2023/05/06 19:55:37;;;;;;;8.85;6.22;;;;;;;16.74;63.06;101458.25;4816646;29;20026;-77
2023/05/06 19:58:02;;;;;;;8.60;6.68;;;;;;;16.54;64.08;101457.59;4819953;29;20472;-77
2023/05/06 20:00:29;;;;;;;9.57;6.57;;;;;;;16.48;64.18;101459.31;4819447;29;20043;-79
2023/05/06 20:02:59;;;;;;;8.00;6.18;;;;;;;16.50;64.27;101463.47;4821007;29;20041;-79
2023/05/06 20:05:29;;;;;;;18.13;11.07;;;;;;;16.52;63.99;101455.91;4820932;29;20633;-78
2023/05/06 20:08:11;;;;;;;12.68;7.55;;;;;;;16.41;64.51;101453.09;4821464;29;20401;-78
2023/05/06 20:10:37;;;;;;;10.35;6.80;;;;;;;16.25;65.46;101460.72;4821884;29;20026;-79
2023/05/06 20:13:02;;;;;;;9.05;5.43;;;;;;;16.28;65.58;101459.44;4823613;29;20038;-79
2023/05/06 20:15:28;;;;;;;6.93;5.90;;;;;;;16.26;66.15;101466.97;4822142;29;20034;-78
2023/05/06 20:17:54;;;;;;;8.82;6.40;;;;;;;16.09;67.33;101462.06;4823051;29;20382;-80
2023/05/06 20:20:20;;;;;;;9.43;6.88;;;;;;;15.90;68.22;101467.41;4823244;29;20070;-80
2023/05/06 20:22:46;;;;;;;10.45;6.60;;;;;;;15.86;68.66;101468.91;4802935;29;20399;-82
2023/05/06 20:25:16;;;;;;;10.68;6.15;;;;;;;15.83;68.39;101463.88;4838817;29;20038;-82
2023/05/06 20:27:42;;;;;;;8.27;5.97;;;;;;;15.85;68.83;101471.81;4830425;29;20041;-82
2023/05/06 20:30:21;;;;;;;10.32;7.00;;;;;;;15.76;69.59;101460.34;4826196;29;20878;-82
2023/05/06 20:32:50;;;;;;;9.77;7.75;;;;;;;15.79;69.22;101470.78;4825672;29;20046;-80
2023/05/06 20:35:21;;;;;;;9.10;6.50;;;;;;;15.72;69.72;101467.25;4830959;29;20472;-81
2023/05/06 20:37:48;;;;;;;10.48;7.40;;;;;;;15.59;70.93;101473.63;4822620;29;20045;-82
2023/05/06 20:40:14;;;;;;;9.13;6.85;;;;;;;15.45;72.34;101472.81;4820954;29;20050;-81
2023/05/06 20:42:39;;;;;;;6.80;6.10;;;;;;;15.46;72.57;101474.50;4821804;29;20034;-81
2023/05/06 20:45:08;;;;;;;8.88;6.53;;;;;;;15.49;72.65;101478.66;4804103;29;20472;-83
2023/05/06 20:47:36;;;;;;;7.40;6.70;;;;;;;15.40;73.47;101469.91;4812228;29;20073;-81
2023/05/06 20:50:02;;;;;;;8.18;6.25;;;;;;;15.35;73.64;101486.00;4819462;29;20046;-81
2023/05/06 20:52:27;;;;;;;8.45;6.25;;;;;;;15.33;73.48;101482.69;5031512;24;20133;-81
2023/05/06 20:54:52;;;;;;;7.70;6.70;;;;;;;15.28;73.91;101481.44;4838254;29;20041;-81
2023/05/06 20:57:19;;;;;;;9.43;7.03;;;;;;;15.28;74.20;101484.16;4828591;29;20029;-81
2023/05/06 20:59:45;;;;;;;11.07;7.50;;;;;;;15.23;74.73;101494.78;4824368;29;20062;-81
2023/05/06 21:02:10;;;;;;;12.25;7.72;;;;;;;15.19;75.27;101484.59;4825049;29;20055;-82
2023/05/06 21:04:36;;;;;;;9.15;7.30;;;;;;;15.13;75.48;101486.28;4821089;29;20045;-82
2023/05/06 21:07:01;;;;;;;11.20;8.45;;;;;;;15.09;75.75;101485.03;4822072;29;20086;-82
2023/05/06 21:09:27;;;;;;;9.05;8.23;;;;;;;15.05;75.95;101479.19;4822709;29;20821;-82
2023/05/06 21:11:53;;;;;;;12.07;9.30;;;;;;;15.01;76.25;101478.75;4823206;29;20038;-82
2023/05/06 21:14:18;;;;;;;9.48;8.20;;;;;;;15.02;76.22;101474.19;4826795;29;20041;-82
2023/05/06 21:16:44;;;;;;;11.52;9.90;;;;;;;14.92;76.88;101473.78;4825875;29;20758;-82
2023/05/06 21:19:12;;;;;;;11.38;10.27;;;;;;;14.89;77.09;101480.47;4826259;29;20039;-82
2023/05/06 21:21:38;;;;;;;12.70;10.50;;;;;;;14.83;77.59;101475.88;4827158;29;20065;-82
2023/05/06 21:24:05;;;;;;;12.38;10.88;;;;;;;14.81;77.86;101475.28;4826881;29;20038;-82
2023/05/06 21:26:31;;;;;;;13.55;10.98;;;;;;;14.77;78.12;101480.25;4824679;29;20117;-82
2023/05/06 21:29:02;;;;;;;14.05;11.02;;;;;;;14.75;78.36;101473.38;4834336;29;20149;-82
2023/05/06 21:31:28;;;;;;;14.70;11.70;;;;;;;14.70;78.53;101474.84;4828046;29;20034;-82
2023/05/06 21:33:55;;;;;;;12.32;10.85;;;;;;;14.69;78.53;101472.34;4833543;29;20495;-82
2023/05/06 21:36:20;;;;;;;11.88;10.77;;;;;;;14.68;78.88;101474.22;4831278;29;20147;-82
2023/05/06 21:38:58;;;;;;;14.10;11.93;;;;;;;14.65;79.06;101469.19;4823207;29;20621;-80
2023/05/06 21:41:24;;;;;;;14.43;12.60;;;;;;;14.61;79.56;101473.38;4824742;29;20071;-81
2023/05/06 21:43:50;;;;;;;17.38;13.65;;;;;;;14.61;79.45;101473.38;4839615;29;20030;-81
2023/05/06 21:46:15;;;;;;;15.43;12.18;;;;;;;14.60;79.27;101466.28;4827826;29;20125;-81
2023/05/06 21:48:40;;;;;;;20.10;14.27;;;;;;;14.58;79.87;101467.50;4832458;29;20030;-81
2023/05/06 21:51:06;;;;;;;15.50;13.85;;;;;;;14.53;79.91;101466.28;4850034;29;20022;-81
2023/05/06 21:53:32;;;;;;;19.23;15.82;;;;;;;14.53;80.32;101463.56;4851702;29;20411;-81
2023/05/06 21:55:58;;;;;;;17.27;13.50;;;;;;;14.64;79.95;101463.97;4829980;29;20117;-81
2023/05/06 21:58:26;;;;;;;12.77;11.32;;;;;;;14.63;79.71;101465.03;4822525;29;20033;-81
2023/05/06 22:00:54;;;;;;;14.80;13.27;;;;;;;14.52;80.28;101464.63;4838599;29;20030;-82
2023/05/06 22:03:19;;;;;;;18.25;13.63;;;;;;;14.50;80.18;101466.69;4825117;29;20030;-78
2023/05/06 22:05:45;;;;;;;17.73;14.93;;;;;;;14.39;80.66;101470.00;4843591;29;20026;-78
2023/05/06 22:08:10;;;;;;;17.05;14.13;;;;;;;14.34;80.98;101461.69;4825874;29;20022;-78
2023/05/06 22:10:36;;;;;;;14.75;13.23;;;;;;;14.36;80.46;101467.72;4824066;29;20038;-77
2023/05/06 22:13:01;;;;;;;16.38;14.68;;;;;;;14.27;80.83;101467.09;4821153;29;20041;-78
2023/05/06 22:15:27;;;;;;;16.13;14.45;;;;;;;14.20;81.09;101467.09;4823460;29;20041;-78
2023/05/06 22:17:52;;;;;;;17.65;15.60;;;;;;;14.07;81.49;101473.31;4824256;29;20029;-78
2023/05/06 22:20:18;;;;;;;17.17;15.38;;;;;;;14.05;81.49;101469.13;4830175;29;20030;-78
2023/05/06 22:22:46;;;;;;;19.13;16.05;;;;;;;13.99;81.42;101465.38;4828701;29;20041;-78
2023/05/06 22:25:12;;;;;;;18.55;15.60;;;;;;;13.95;81.62;101464.09;4825424;29;20114;-78
2023/05/06 22:27:37;;;;;;;18.90;15.68;;;;;;;13.94;81.75;101463.28;4828936;29;20097;-78
2023/05/06 22:30:03;;;;;;;19.00;16.95;;;;;;;13.88;81.78;101464.09;4828497;29;20027;-78
2023/05/06 22:32:28;;;;;;;20.55;16.23;;;;;;;13.84;82.04;101460.16;4822004;29;20042;-78
2023/05/06 22:34:53;;;;;;;17.88;15.98;;;;;;;13.80;81.92;101461.59;4824215;29;20034;-78
2023/05/06 22:37:19;;;;;;;17.10;15.18;;;;;;;13.82;82.00;101458.66;4840123;29;20018;-78
2023/05/06 22:39:46;;;;;;;17.58;15.38;;;;;;;13.84;81.68;101457.44;4840992;29;20038;-78
2023/05/06 22:42:13;;;;;;;19.73;16.17;;;;;;;13.82;81.92;101464.06;4826430;29;20158;-78
2023/05/06 22:44:38;;;;;;;19.45;16.83;;;;;;;13.76;81.85;101463.88;4824831;29;20038;-78
2023/05/06 22:47:05;;;;;;;20.15;16.40;;;;;;;13.79;82.02;101471.56;4834017;29;20077;-78
2023/05/06 22:49:31;;;;;;;17.70;15.82;;;;;;;13.74;82.09;101467.78;4829325;29;20039;-78
2023/05/06 22:51:57;;;;;;;18.17;16.23;;;;;;;13.75;82.26;101469.47;4817376;29;20180;-78
2023/05/06 22:54:22;;;;;;;18.48;16.25;;;;;;;13.70;82.00;101466.53;4835673;29;20041;-78
2023/05/06 22:56:48;;;;;;;21.08;16.60;;;;;;;13.70;82.07;101458.41;4835999;29;20514;-78
2023/05/06 22:59:13;;;;;;;18.55;16.15;;;;;;;13.74;81.82;101473.22;4824857;29;20095;-78
2023/05/06 23:01:39;;;;;;;18.42;16.40;;;;;;;13.73;82.12;101463.41;4827323;29;20042;-79
2023/05/06 23:04:04;;;;;;;19.25;17.27;;;;;;;13.71;82.03;101462.78;4823585;29;20030;-77
2023/05/06 23:06:30;;;;;;;18.60;16.60;;;;;;;13.74;82.09;101465.09;4823283;29;20581;-78
2023/05/06 23:08:55;;;;;;;18.67;16.67;;;;;;;13.71;82.11;101458.22;4823984;29;20125;-79
2023/05/06 23:11:21;;;;;;;18.83;16.83;;;;;;;13.71;81.88;101455.53;4823883;29;20041;-78
2023/05/06 23:13:46;;;;;;;18.83;16.90;;;;;;;13.73;81.91;101456.16;4823443;29;20041;-78
2023/05/06 23:16:13;;;;;;;17.48;15.75;;;;;;;13.73;81.61;101461.56;4823999;29;20435;-78
2023/05/06 23:18:38;;;;;;;18.23;15.93;;;;;;;13.72;81.64;101459.91;4823836;29;20118;-78
2023/05/06 23:21:04;;;;;;;19.15;17.13;;;;;;;13.68;81.82;101452.41;4815914;29;20039;-79
2023/05/06 23:23:30;;;;;;;22.13;17.92;;;;;;;13.65;82.03;101456.31;4816939;29;20033;-78
2023/05/06 23:25:56;;;;;;;18.15;16.10;;;;;;;13.67;82.12;101461.53;4822244;29;20106;-79
2023/05/06 23:28:24;;;;;;;21.02;18.50;;;;;;;13.64;82.30;101451.94;4824173;29;20038;-78
2023/05/06 23:30:49;;;;;;;22.88;18.63;;;;;;;13.64;82.09;101454.66;4823043;29;20042;-79
2023/05/06 23:33:15;;;;;;;20.23;18.00;;;;;;;13.63;81.60;101458.38;4822538;29;20383;-78
2023/05/06 23:35:40;;;;;;;19.58;16.50;;;;;;;13.64;81.56;101463.63;4823240;29;20027;-79
2023/05/06 23:38:06;;;;;;;19.52;17.50;;;;;;;13.65;81.92;101461.72;4822939;29;20022;-78
2023/05/06 23:40:32;;;;;;;20.20;17.88;;;;;;;13.64;81.79;101462.75;4822389;29;20038;-79
2023/05/06 23:42:58;;;;;;;23.42;19.00;;;;;;;13.62;81.75;101462.13;4821402;29;20030;-78
2023/05/06 23:45:24;;;;;;;20.55;17.98;;;;;;;13.62;81.79;101464.84;4837225;29;20041;-78
2023/05/06 23:47:49;;;;;;;20.48;17.42;;;;;;;13.63;81.58;101459.25;4835423;29;20034;-78
2023/05/06 23:50:15;;;;;;;22.65;19.27;;;;;;;13.63;81.24;101466.50;4838694;29;20535;-78
2023/05/06 23:52:40;;;;;;;23.00;18.60;;;;;;;13.64;81.51;101460.91;4821690;29;20046;-78
2023/05/06 23:55:06;;;;;;;23.85;18.27;;;;;;;13.69;81.20;101465.72;4831160;24;20663;-78
2023/05/06 23:57:31;;;;;;;18.73;16.75;;;;;;;13.71;80.99;101463.63;4842528;29;20030;-78
2023/05/06 23:59:57;;;;;;;20.33;17.05;;;;;;;13.73;80.72;101458.00;4841190;29;20471;-78
